createdAt,value
2022-12-15T00:02:36.890Z,99976.75
2022-12-15T00:05:24.327Z,99974.97
2022-12-15T00:08:09.654Z,99971.00
2022-12-15T00:10:55.403Z,99975.44
2022-12-15T00:13:41.406Z,99977.16
2022-12-15T00:16:27.334Z,99968.03
2022-12-15T00:19:12.814Z,99957.63
2022-12-15T00:21:59.682Z,99947.72
2022-12-15T00:24:45.133Z,99949.22
2022-12-15T00:27:35.273Z,99939.63
2022-12-15T00:30:21.144Z,99950.13
2022-12-15T00:33:06.797Z,99949.41
2022-12-15T00:35:52.214Z,99935.31
2022-12-15T00:38:39.549Z,99933.34
2022-12-15T00:41:07.666Z,99921.28
2022-12-15T00:43:37.245Z,99916.53
2022-12-15T00:46:23.158Z,99911.97
2022-12-15T00:48:51.442Z,99912.38
2022-12-15T00:51:19.294Z,99899.31
2022-12-15T00:54:06.566Z,99895.56
2022-12-15T00:56:51.962Z,99891.78
2022-12-15T00:59:37.359Z,99884.22
2022-12-15T01:02:22.857Z,99880.75
2022-12-15T01:05:08.546Z,99876.88
2022-12-15T01:07:54.054Z,99864.19
2022-12-15T01:10:41.107Z,99867.53
2022-12-15T01:13:31.504Z,99861.19
2022-12-15T01:16:17.454Z,99849.28
2022-12-15T01:19:03.074Z,99839.75
2022-12-15T01:21:33.182Z,99819.22
2022-12-15T01:24:01.272Z,99822.97
2022-12-15T01:26:30.964Z,99817.78
2022-12-15T01:28:59.072Z,99822.34
2022-12-15T01:31:27.318Z,99820.06
2022-12-15T01:33:55.767Z,99819.28
2022-12-15T01:36:23.888Z,99821.06
2022-12-15T01:38:54.386Z,99814.34
2022-12-15T01:41:22.571Z,99812.59
2022-12-15T01:43:52.064Z,99800.03
2022-12-15T01:46:22.292Z,99800.81
2022-12-15T01:48:55.952Z,99808.81
2022-12-15T01:51:29.876Z,99796.38
2022-12-15T01:54:04.646Z,99795.41
2022-12-15T01:56:37.873Z,99796.69
2022-12-15T01:59:10.943Z,99789.47
2022-12-15T02:01:39.579Z,99785.88
2022-12-15T02:04:09.116Z,99785.41
2022-12-15T02:06:37.662Z,99765.91
2022-12-15T02:09:06.437Z,99769.16
2022-12-15T02:11:50.973Z,99765.91
2022-12-15T02:14:35.798Z,99768.28
2022-12-15T02:17:13.882Z,99765.72
2022-12-15T02:20:27.342Z,99758.00
2022-12-15T02:23:40.894Z,99757.81
2022-12-15T02:26:29.882Z,99750.00
2022-12-15T02:29:13.319Z,99761.91
2022-12-15T02:31:54.480Z,99763.59
2022-12-15T02:34:30.595Z,99770.53
2022-12-15T02:37:02.812Z,99759.84
2022-12-15T02:39:31.107Z,99750.59
2022-12-15T02:41:59.243Z,99752.69
2022-12-15T02:44:33.774Z,99749.16
2022-12-15T02:47:22.426Z,99740.69
2022-12-15T02:50:08.777Z,99746.25
2022-12-15T02:52:51.692Z,99750.59
2022-12-15T02:55:29.211Z,99750.66
2022-12-15T02:58:04.090Z,99733.97
2022-12-15T03:00:38.914Z,99742.97
2022-12-15T03:03:09.578Z,99742.19
2022-12-15T03:05:38.390Z,99739.97
2022-12-15T03:08:06.541Z,99735.41
2022-12-15T03:10:34.653Z,99734.63
2022-12-15T03:13:02.776Z,99744.69
2022-12-15T03:15:35.351Z,99743.91
2022-12-15T03:18:04.018Z,99740.09
2022-12-15T03:20:33.480Z,99737.00
2022-12-15T03:23:01.986Z,99730.69
2022-12-15T03:25:30.514Z,99719.22
2022-12-15T03:27:58.625Z,99717.50
2022-12-15T03:30:26.807Z,99722.03
2022-12-15T03:32:54.938Z,99706.56
2022-12-15T03:35:23.146Z,99710.66
2022-12-15T03:37:52.639Z,99702.16
2022-12-15T03:40:20.835Z,99702.78
2022-12-15T03:42:51.714Z,99702.03
2022-12-15T03:45:23.683Z,99692.41
2022-12-15T03:47:52.559Z,99696.00
2022-12-15T03:50:22.982Z,99702.16
2022-12-15T03:52:57.243Z,99705.25
2022-12-15T03:55:25.881Z,99693.94
2022-12-15T03:57:54.274Z,99694.56
2022-12-15T04:00:23.342Z,99699.44
2022-12-15T04:02:52.465Z,99702.41
2022-12-15T04:05:23.297Z,99704.63
2022-12-15T04:07:51.462Z,99693.47
2022-12-15T04:10:21.033Z,99686.25
2022-12-15T04:12:49.273Z,99684.34
2022-12-15T04:15:17.517Z,99682.66
2022-12-15T04:17:45.989Z,99689.06
2022-12-15T04:20:14.068Z,99692.56
2022-12-15T04:22:44.111Z,99692.88
2022-12-15T04:25:32.987Z,99692.56
2022-12-15T04:28:20.050Z,99684.97
2022-12-15T04:31:10.484Z,99686.72
2022-12-15T04:33:58.008Z,99687.94
2022-12-15T04:36:43.686Z,99686.72
2022-12-15T04:39:29.378Z,99677.13
2022-12-15T04:42:17.907Z,99673.34
2022-12-15T04:45:05.290Z,99665.97
2022-12-15T04:47:50.842Z,99666.78
2022-12-15T04:50:36.418Z,99676.19
2022-12-15T04:53:29.279Z,99675.41
2022-12-15T04:56:18.694Z,99664.72
2022-12-15T04:59:04.429Z,99665.03
2022-12-15T05:01:51.773Z,99678.50
2022-12-15T05:04:38.181Z,99670.03
2022-12-15T05:07:23.611Z,99664.22
2022-12-15T05:10:14.687Z,99660.28
2022-12-15T05:13:00.951Z,99652.25
2022-12-15T05:15:46.601Z,99655.72
2022-12-15T05:18:33.738Z,99655.25
2022-12-15T05:21:19.257Z,99655.25
2022-12-15T05:24:04.771Z,99663.91
2022-12-15T05:26:53.063Z,99664.34
2022-12-15T05:29:38.834Z,99677.13
2022-12-15T05:32:07.398Z,99681.47
2022-12-15T05:34:37.965Z,99681.19
2022-12-15T05:37:07.363Z,99689.38
2022-12-15T05:39:35.869Z,99681.19
2022-12-15T05:42:04.340Z,99692.00
2022-12-15T05:44:32.506Z,99700.13
2022-12-15T05:47:00.662Z,99688.19
2022-12-15T05:49:28.837Z,99699.97
2022-12-15T05:51:58.406Z,99692.13
2022-12-15T05:54:26.812Z,99692.94
2022-12-15T05:56:55.001Z,99696.53
2022-12-15T05:59:23.321Z,99699.03
2022-12-15T06:01:51.429Z,99701.09
2022-12-15T06:04:19.689Z,99702.03
2022-12-15T06:06:47.909Z,99700.13
2022-12-15T06:09:17.363Z,99695.72
2022-12-15T06:11:45.627Z,99705.59
2022-12-15T06:14:13.871Z,99718.50
2022-12-15T06:16:50.869Z,99713.00
2022-12-15T06:19:20.246Z,99718.66
2022-12-15T06:21:48.390Z,99719.78
2022-12-15T06:24:17.965Z,99723.22
2022-12-15T06:26:46.206Z,99728.25
2022-12-15T06:29:17.815Z,99741.91
2022-12-15T06:31:46.149Z,99743.03
2022-12-15T06:34:16.224Z,99751.78
2022-12-15T06:36:44.914Z,99754.94
2022-12-15T06:39:15.445Z,99752.75
2022-12-15T06:41:45.668Z,99757.84
2022-12-15T06:44:15.276Z,99758.66
2022-12-15T06:46:45.827Z,99757.06
2022-12-15T06:49:14.518Z,99762.91
2022-12-15T06:51:44.240Z,99772.00
2022-12-15T06:54:12.656Z,99783.31
2022-12-15T06:56:40.840Z,99782.03
2022-12-15T06:59:13.486Z,99785.38
2022-12-15T07:01:43.143Z,99781.59
2022-12-15T07:04:12.184Z,99784.91
2022-12-15T07:06:42.452Z,99784.75
2022-12-15T07:09:16.178Z,99782.53
2022-12-15T07:11:45.317Z,99786.94
2022-12-15T07:14:14.938Z,99792.75
2022-12-15T07:16:43.186Z,99787.78
2022-12-15T07:19:13.018Z,99784.03
2022-12-15T07:21:41.682Z,99787.47
2022-12-15T07:24:11.835Z,99792.38
2022-12-15T07:26:40.035Z,99805.09
2022-12-15T07:29:08.277Z,99800.06
2022-12-15T07:31:37.832Z,99803.72
2022-12-15T07:34:05.982Z,99804.28
2022-12-15T07:36:35.037Z,99803.91
2022-12-15T07:39:04.932Z,99807.25
2022-12-15T07:41:33.622Z,99813.91
2022-12-15T07:44:02.540Z,99805.56
2022-12-15T07:46:31.162Z,99801.22
2022-12-15T07:49:01.009Z,99808.38
2022-12-15T07:51:29.071Z,99807.44
2022-12-15T07:53:57.595Z,99805.69
2022-12-15T07:56:25.767Z,99807.13
2022-12-15T07:58:54.198Z,99815.16
2022-12-15T08:01:22.495Z,99804.59
2022-12-15T08:03:51.015Z,99812.16
2022-12-15T08:06:20.678Z,99817.06
2022-12-15T08:08:51.225Z,99817.97
2022-12-15T08:11:21.978Z,99822.34
2022-12-15T08:14:10.511Z,99816.53
2022-12-15T08:16:40.004Z,99807.63
2022-12-15T08:19:11.870Z,99804.69
2022-12-15T08:21:43.091Z,99817.59
2022-12-15T08:24:11.963Z,99811.63
2022-12-15T08:26:40.312Z,99820.13
2022-12-15T08:29:50.266Z,99829.13
2022-12-15T08:31:58.473Z,99832.41
2022-12-15T08:34:26.662Z,99836.88
2022-12-15T08:36:56.769Z,99830.44
2022-12-15T08:39:24.977Z,99833.41
2022-12-15T08:41:53.232Z,99830.59
2022-12-15T08:44:21.338Z,99828.41
2022-12-15T08:46:49.385Z,99833.63
2022-12-15T08:49:21.847Z,99826.88
2022-12-15T08:51:51.262Z,99834.56
2022-12-15T08:54:21.745Z,99830.16
2022-12-15T08:56:50.027Z,99832.06
2022-12-15T08:59:19.382Z,99835.97
2022-12-15T09:01:47.913Z,99840.06
2022-12-15T09:04:16.808Z,99840.84
2022-12-15T09:06:50.892Z,99834.84
2022-12-15T09:09:21.103Z,99837.31
2022-12-15T09:11:49.420Z,99828.38
2022-12-15T09:14:22.716Z,99840.31
2022-12-15T09:16:55.527Z,99854.53
2022-12-15T09:19:23.735Z,99848.88
2022-12-15T09:21:52.073Z,99852.03
2022-12-15T09:24:32.141Z,99847.47
2022-12-15T09:27:03.391Z,99842.59
2022-12-15T09:29:31.603Z,99848.72
2022-12-15T09:32:00.576Z,99832.19
2022-12-15T09:34:28.739Z,99829.34
2022-12-15T09:36:56.820Z,99833.00
2022-12-15T09:39:26.417Z,99838.03
2022-12-15T09:41:58.757Z,99847.97
2022-12-15T09:44:28.926Z,99848.28
2022-12-15T09:47:10.022Z,99844.31
2022-12-15T09:49:54.210Z,99851.91
2022-12-15T09:52:26.671Z,99843.06
2022-12-15T09:54:56.976Z,99846.38
2022-12-15T09:57:37.410Z,99856.13
2022-12-15T10:00:22.008Z,99855.19
2022-12-15T10:03:31.162Z,99864.03
2022-12-15T10:06:16.737Z,99849.06
2022-12-15T10:08:50.430Z,99848.75
2022-12-15T10:11:27.861Z,99848.75
2022-12-15T10:14:01.085Z,99844.50
2022-12-15T10:16:36.167Z,99850.16
2022-12-15T10:19:10.363Z,99853.94
2022-12-15T10:21:38.676Z,99873.63
2022-12-15T10:24:37.426Z,99876.63
2022-12-15T10:27:28.347Z,99881.19
2022-12-15T10:30:02.590Z,99884.00
2022-12-15T10:32:42.651Z,99875.97
2022-12-15T10:35:17.304Z,99877.56
2022-12-15T10:37:45.455Z,99883.56
2022-12-15T10:40:19.091Z,99880.25
2022-12-15T10:42:50.912Z,99890.81
2022-12-15T10:45:36.864Z,99879.63
2022-12-15T10:48:06.933Z,99886.88
2022-12-15T10:50:35.795Z,99892.97
2022-12-15T10:53:09.715Z,99892.66
2022-12-15T10:55:40.097Z,99904.91
2022-12-15T10:58:18.769Z,99901.31
2022-12-15T11:03:39.748Z,99905.69
2022-12-15T11:06:17.131Z,99914.38
2022-12-15T11:08:47.516Z,99903.69
2022-12-15T11:11:50.342Z,99910.47
2022-12-15T11:14:24.312Z,99911.09
2022-12-15T11:16:56.556Z,99898.00
2022-12-15T11:19:37.185Z,99910.31
2022-12-15T11:22:11.336Z,99909.06
2022-12-15T11:24:45.699Z,99893.47
2022-12-15T11:27:25.734Z,99912.19
2022-12-15T11:30:02.928Z,99901.81
2022-12-15T11:32:35.475Z,99912.22
2022-12-15T11:35:04.181Z,99910.44
2022-12-15T11:37:40.439Z,99922.56
2022-12-15T11:40:21.506Z,99919.41
2022-12-15T11:43:02.278Z,99916.28
2022-12-15T11:45:41.553Z,99935.34
2022-12-15T11:48:17.377Z,99938.00
2022-12-15T11:50:55.050Z,99943.63
2022-12-15T11:53:52.167Z,99936.72
2022-12-15T11:56:30.442Z,99940.94
2022-12-15T11:59:19.766Z,99956.34
2022-12-15T12:02:17.529Z,99967.97
2022-12-15T12:05:01.770Z,99973.81
2022-12-15T12:07:42.302Z,99976.00
2022-12-15T12:10:26.156Z,99978.38
2022-12-15T12:13:03.062Z,99985.25
2022-12-15T12:15:36.739Z,99994.31
2022-12-15T12:18:14.265Z,100002.81
2022-12-15T12:20:48.633Z,100010.22
2022-12-15T12:23:23.719Z,100018.38
2022-12-15T12:26:03.466Z,100009.44
2022-12-15T12:28:41.292Z,100012.31
2022-12-15T12:31:22.301Z,100008.19
2022-12-15T12:34:00.047Z,100012.47
2022-12-15T12:36:28.156Z,100026.63
2022-12-15T12:38:59.579Z,100028.97
2022-12-15T12:41:35.781Z,100028.38
2022-12-15T12:44:13.615Z,100031.63
2022-12-15T12:46:45.859Z,100027.19
2022-12-15T12:49:28.367Z,100025.75
2022-12-15T12:51:59.670Z,100029.50
2022-12-15T12:54:50.231Z,100047.00
2022-12-15T12:57:40.028Z,100031.41
2022-12-15T13:00:20.903Z,100041.13
2022-12-15T13:02:57.108Z,100050.91
2022-12-15T13:05:34.774Z,100064.91
2022-12-15T13:08:41.474Z,100056.44
2022-12-15T13:11:56.585Z,100047.75
2022-12-15T13:14:48.351Z,100056.22
2022-12-15T13:17:28.596Z,100060.00
2022-12-15T13:20:23.677Z,100064.19
2022-12-15T13:22:54.502Z,100069.59
2022-12-15T13:25:36.989Z,100079.00
2022-12-15T13:28:31.468Z,100089.59
2022-12-15T13:31:36.909Z,100099.41
2022-12-15T13:34:15.205Z,100107.63
2022-12-15T13:37:01.827Z,100110.69
2022-12-15T13:39:59.409Z,100113.25
2022-12-15T13:42:53.160Z,100108.69
2022-12-15T13:45:50.224Z,100106.44
2022-12-15T13:48:38.565Z,100119.50
2022-12-15T13:51:30.623Z,100116.53
2022-12-15T13:54:03.236Z,100114.03
2022-12-15T13:56:56.104Z,100125.91
2022-12-15T13:59:30.943Z,100135.91
2022-12-15T14:01:59.135Z,100132.03
2022-12-15T14:04:27.882Z,100146.13
2022-12-15T14:06:58.871Z,100148.19
2022-12-15T14:09:32.287Z,100150.94
2022-12-15T14:12:03.668Z,100155.66
2022-12-15T14:14:35.078Z,100150.84
2022-12-15T14:17:07.247Z,100144.81
2022-12-15T14:19:40.183Z,100133.63
2022-12-15T14:22:29.667Z,100145.16
2022-12-15T14:25:03.737Z,100147.47
2022-12-15T14:27:35.343Z,100160.22
2022-12-15T14:30:28.674Z,100148.78
2022-12-15T14:33:01.114Z,100161.38
2022-12-15T14:35:32.596Z,100165.22
2022-12-15T14:38:04.599Z,100173.78
2022-12-15T14:40:36.379Z,100174.47
2022-12-15T14:43:08.353Z,100180.09
2022-12-15T14:45:36.493Z,100172.38
2022-12-15T14:48:40.101Z,100178.44
2022-12-15T14:51:02.061Z,100170.34
2022-12-15T14:53:34.980Z,100181.38
2022-12-15T14:56:29.786Z,100180.06
2022-12-15T14:59:03.917Z,100186.47
2022-12-15T15:01:40.244Z,100184.13
2022-12-15T15:03:11.588Z,99915.31
2022-12-15T15:04:24.782Z,100195.84
2022-12-15T15:06:56.321Z,100185.22
2022-12-15T15:09:27.170Z,100185.34
2022-12-15T15:11:58.156Z,100184.41
2022-12-15T15:14:30.664Z,100190.13
2022-12-15T15:17:05.488Z,100202.66
2022-12-15T15:19:39.330Z,100206.41
2022-12-15T15:22:24.502Z,100200.34
2022-12-15T15:24:53.086Z,100196.63
2022-12-15T15:27:34.367Z,100202.50
2022-12-15T15:30:17.745Z,100213.72
2022-12-15T15:32:54.729Z,100219.94
2022-12-15T15:35:24.607Z,100223.34
2022-12-15T15:37:54.508Z,100230.38
2022-12-15T15:40:22.684Z,100224.06
2022-12-15T15:42:50.796Z,100221.41
2022-12-15T15:45:20.451Z,100229.38
2022-12-15T15:47:51.337Z,100219.84
2022-12-15T15:50:28.810Z,100229.22
2022-12-15T15:52:57.408Z,100232.16
2022-12-15T15:55:29.500Z,100231.63
2022-12-15T15:57:59.470Z,100239.59
2022-12-15T16:00:29.014Z,100230.88
2022-12-15T16:02:57.264Z,100232.16
2022-12-15T16:05:25.548Z,100247.56
2022-12-15T16:07:53.690Z,100245.22
2022-12-15T16:10:22.279Z,100239.59
2022-12-15T16:12:54.041Z,100248.41
2022-12-15T16:15:26.026Z,100263.53
2022-12-15T16:17:56.454Z,100288.19
2022-12-15T16:20:29.201Z,100287.09
2022-12-15T16:23:02.405Z,100289.22
2022-12-15T16:25:42.427Z,100285.06
2022-12-15T16:28:14.336Z,100288.31
2022-12-15T16:30:43.263Z,100289.16
2022-12-15T16:33:13.514Z,100302.47
2022-12-15T16:35:43.318Z,100312.09
2022-12-15T16:38:18.274Z,100319.25
2022-12-15T16:40:46.714Z,100322.47
2022-12-15T16:43:17.432Z,100321.94
2022-12-15T16:45:47.423Z,100333.94
2022-12-15T16:48:18.083Z,100333.41
2022-12-15T16:50:51.916Z,100337.97
2022-12-15T16:53:23.261Z,100342.47
2022-12-15T16:55:55.136Z,100343.22
2022-12-15T16:58:25.237Z,100358.66
2022-12-15T17:00:53.938Z,100357.88
2022-12-15T17:03:26.258Z,100366.91
2022-12-15T17:05:56.896Z,100378.84
2022-12-15T17:08:27.783Z,100383.63
2022-12-15T17:10:56.272Z,100381.25
2022-12-15T17:13:36.625Z,100383.91
2022-12-15T17:16:08.494Z,100383.38
2022-12-15T17:18:38.166Z,100391.88
2022-12-15T17:21:16.526Z,100403.78
2022-12-15T17:23:45.934Z,100413.09
2022-12-15T17:26:29.028Z,100409.13
2022-12-15T17:29:01.662Z,100405.13
2022-12-15T17:31:35.205Z,100412.03
2022-12-15T17:34:21.186Z,100411.78
2022-12-15T17:36:49.436Z,100425.28
2022-12-15T17:39:20.543Z,100425.81
2022-12-15T17:42:04.601Z,100424.22
2022-12-15T17:44:37.939Z,100423.41
2022-12-15T17:47:08.955Z,100432.97
2022-12-15T17:49:39.447Z,100435.63
2022-12-15T17:52:17.631Z,100425.81
2022-12-15T17:54:45.969Z,100418.13
2022-12-15T17:57:14.201Z,100415.22
2022-12-15T17:59:42.362Z,100424.25
2022-12-15T18:02:13.364Z,100438.84
2022-12-15T18:04:44.139Z,100440.16
2022-12-15T18:07:24.272Z,100438.78
2022-12-15T18:09:55.939Z,100436.84
2022-12-15T18:12:27.268Z,100435.28
2022-12-15T18:14:57.015Z,100440.50
2022-12-15T18:17:25.298Z,100448.44
2022-12-15T18:19:54.991Z,100447.34
2022-12-15T18:22:25.260Z,100455.53
2022-12-15T18:24:56.207Z,100460.19
2022-12-15T18:27:26.371Z,100466.13
2022-12-15T18:29:54.946Z,100448.41
2022-12-15T18:32:25.907Z,100460.88
2022-12-15T18:34:55.975Z,100459.22
2022-12-15T18:37:25.832Z,100454.94
2022-12-15T18:39:57.120Z,100448.31
2022-12-15T18:42:29.065Z,100456.00
2022-12-15T18:44:58.806Z,100465.31
2022-12-15T18:47:27.786Z,100477.22
2022-12-15T18:49:57.430Z,100485.19
2022-12-15T18:52:31.539Z,100485.75
2022-12-15T18:55:02.953Z,100500.06
2022-12-15T18:57:33.273Z,100506.41
2022-12-15T19:00:04.458Z,100500.00
2022-12-15T19:02:33.173Z,100507.72
2022-12-15T19:05:02.882Z,100509.91
2022-12-15T19:07:31.500Z,100519.72
2022-12-15T19:10:00.971Z,100527.16
2022-12-15T19:12:29.122Z,100532.78
2022-12-15T19:14:57.339Z,100528.50
2022-12-15T19:17:43.356Z,100532.22
2022-12-15T19:20:35.929Z,100539.16
2022-12-15T19:23:04.548Z,100541.56
2022-12-15T19:25:33.163Z,100546.00
2022-12-15T19:28:02.256Z,100546.88
2022-12-15T19:30:38.646Z,100543.91
2022-12-15T19:33:10.226Z,100541.16
2022-12-15T19:35:41.789Z,100549.81
2022-12-15T19:38:20.558Z,100552.50
2022-12-15T19:40:49.309Z,100543.56
2022-12-15T19:43:18.073Z,100555.31
2022-12-15T19:45:46.337Z,100552.91
2022-12-15T19:48:18.715Z,100548.91
2022-12-15T19:50:52.188Z,100557.13
2022-12-15T19:53:26.392Z,100550.78
2022-12-15T19:55:56.991Z,100553.44
2022-12-15T19:58:29.190Z,100546.81
2022-12-15T20:00:59.552Z,100539.41
2022-12-15T20:03:28.938Z,100543.41
2022-12-15T20:06:00.270Z,100546.09
2022-12-15T20:08:33.995Z,100555.34
2022-12-15T20:11:02.303Z,100552.16
2022-12-15T20:13:30.940Z,100559.09
2022-12-15T20:15:59.258Z,100565.44
2022-12-15T20:18:27.340Z,100563.53
2022-12-15T20:20:55.767Z,100561.38
2022-12-15T20:23:27.443Z,100549.03
2022-12-15T20:25:57.146Z,100540.47
2022-12-15T20:28:27.069Z,100550.81
2022-12-15T20:30:56.169Z,100558.75
2022-12-15T20:33:24.880Z,100560.09
2022-12-15T20:35:53.434Z,100559.25
2022-12-15T20:38:29.682Z,100560.22
2022-12-15T20:40:58.335Z,100572.34
2022-12-15T20:43:31.139Z,100577.72
2022-12-15T20:46:04.229Z,100579.16
2022-12-15T20:48:34.847Z,100581.66
2022-12-15T20:51:07.431Z,100581.31
2022-12-15T20:53:39.141Z,100595.94
2022-12-15T20:56:08.161Z,100605.34
2022-12-15T20:58:39.308Z,100603.16
2022-12-15T21:01:17.917Z,100600.28
2022-12-15T21:03:46.575Z,100599.47
2022-12-15T21:06:14.789Z,100601.56
2022-12-15T21:08:44.856Z,100613.31
2022-12-15T21:11:18.510Z,100609.41
2022-12-15T21:13:48.471Z,100603.31
2022-12-15T21:16:19.657Z,100603.53
2022-12-15T21:21:38.758Z,100615.56
2022-12-15T21:24:19.177Z,100610.75
2022-12-15T21:26:47.842Z,100609.72
2022-12-15T21:29:17.901Z,100601.72
2022-12-15T21:31:46.845Z,100599.06
2022-12-15T21:34:15.419Z,100605.19
2022-12-15T21:36:47.433Z,100607.59
2022-12-15T21:39:24.131Z,100602.78
2022-12-15T21:41:52.524Z,100601.16
2022-12-15T21:44:23.364Z,100597.69
2022-12-15T21:46:51.749Z,100615.75
2022-12-15T21:49:18.919Z,100624.56
2022-12-15T21:51:49.722Z,100611.50
2022-12-15T21:54:28.844Z,100607.25
2022-12-15T21:56:59.432Z,100616.25
2022-12-15T21:59:30.952Z,100614.88
2022-12-15T22:02:01.232Z,100620.66
2022-12-15T22:04:31.810Z,100618.50
2022-12-15T22:06:59.999Z,100620.56
2022-12-15T22:09:29.826Z,100620.78
2022-12-15T22:11:58.273Z,100622.03
2022-12-15T22:14:28.264Z,100635.31
2022-12-15T22:16:56.691Z,100633.16
2022-12-15T22:19:25.238Z,100629.44
2022-12-15T22:21:53.407Z,100629.97
2022-12-15T22:24:21.550Z,100630.47
2022-12-15T22:26:51.646Z,100626.78
2022-12-15T22:29:22.356Z,100626.81
2022-12-15T22:31:51.876Z,100634.56
2022-12-15T22:34:22.034Z,100629.22
2022-12-15T22:36:50.706Z,100633.38
2022-12-15T22:39:20.634Z,100634.69
2022-12-15T22:41:52.342Z,100624.34
2022-12-15T22:44:27.328Z,100618.06
2022-12-15T22:46:57.945Z,100617.00
2022-12-15T22:49:37.628Z,100623.94
2022-12-15T22:52:16.665Z,100622.56
2022-12-15T22:54:45.916Z,100623.13
2022-12-15T22:57:21.856Z,100616.97
2022-12-15T22:59:55.421Z,100615.44
2022-12-15T23:02:23.577Z,100613.03
2022-12-15T23:04:51.673Z,100616.19
2022-12-15T23:07:20.138Z,100617.56
2022-12-15T23:09:48.327Z,100617.47
2022-12-15T23:12:17.005Z,100610.81
2022-12-15T23:15:02.765Z,100615.50
2022-12-15T23:17:30.856Z,100604.88
2022-12-15T23:19:59.005Z,100600.56
2022-12-15T23:22:27.090Z,100599.84
2022-12-15T23:24:55.796Z,100601.19
2022-12-15T23:27:25.489Z,100610.97
2022-12-15T23:29:53.638Z,100618.94
2022-12-15T23:32:23.089Z,100614.97
2022-12-15T23:34:51.588Z,100624.25
2022-12-15T23:37:19.746Z,100627.97
2022-12-15T23:39:47.869Z,100621.91
2022-12-15T23:42:16.009Z,100629.16
2022-12-15T23:44:48.203Z,100629.50
2022-12-15T23:47:16.395Z,100627.63
2022-12-15T23:49:44.514Z,100627.63
2022-12-15T23:52:12.768Z,100637.13
2022-12-15T23:54:40.946Z,100642.00
2022-12-15T23:57:09.051Z,100640.91
2022-12-15T23:59:37.200Z,100637.19
